Time;durP1;ratioP1;P1;durP2;ratioP2;P2;SDS_P1;SDS_P2;PMS_P1;PMS_P2;Temp;Humidity;BMP_temperature;BMP_pressure;BME280_temperature;BME280_humidity;BME280_pressure;Samples;Min_cycle;Max_cycle;Signal;HPM_P1;HPM_P2
2021/01/03 00:02:22;;;;;;;13.70;12.40;;;2.30;99.90;;;;;;5039103;28;20646;-91
2021/01/03 00:04:50;;;;;;;12.07;10.97;;;2.30;99.90;;;;;;5039885;28;20672;-90
2021/01/03 00:07:17;;;;;;;12.53;11.37;;;2.40;99.90;;;;;;5027657;28;20739;-91
2021/01/03 00:09:44;;;;;;;12.03;10.90;;;2.40;99.90;;;;;;5028439;28;20673;-90
2021/01/03 00:12:10;;;;;;;11.90;10.90;;;2.40;99.90;;;;;;5026694;28;21065;-90
2021/01/03 00:14:47;;;;;;;11.30;10.30;;;2.40;99.90;;;;;;5027190;28;20983;-91
2021/01/03 00:17:15;;;;;;;12.50;11.30;;;2.40;99.90;;;;;;5011856;28;20647;-91
2021/01/03 00:19:42;;;;;;;11.70;10.60;;;2.40;99.90;;;;;;5028552;28;20662;-95
2021/01/03 00:22:08;;;;;;;12.50;11.40;;;2.30;99.90;;;;;;5026827;28;20644;-94
2021/01/03 00:24:36;;;;;;;12.90;11.70;;;2.20;99.90;;;;;;5031973;28;21005;-94
2021/01/03 00:27:10;;;;;;;12.23;11.13;;;2.30;99.90;;;;;;5034480;28;20706;-95
2021/01/03 00:29:36;;;;;;;12.43;11.07;;;2.40;99.90;;;;;;5020081;28;20670;-92
2021/01/03 00:32:03;;;;;;;12.57;11.47;;;2.30;99.90;;;;;;5025909;28;20636;-95
2021/01/03 00:34:32;;;;;;;11.27;10.17;;;2.30;99.90;;;;;;5016374;28;20996;-93
2021/01/03 00:37:00;;;;;;;12.20;11.03;;;2.30;99.90;;;;;;5023394;28;20638;-92
2021/01/03 00:39:27;;;;;;;13.00;11.80;;;2.30;99.90;;;;;;5025479;28;20627;-92
2021/01/03 00:41:53;;;;;;;13.40;12.20;;;2.30;99.90;;;;;;5025438;28;20635;-91
2021/01/03 00:44:20;;;;;;;13.17;11.97;;;2.20;99.90;;;;;;5007206;28;21080;-93
2021/01/03 00:46:47;;;;;;;11.60;10.60;;;2.20;99.90;;;;;;5026049;28;21197;-91
2021/01/03 00:49:15;;;;;;;12.40;11.20;;;2.20;99.90;;;;;;5024196;28;21283;-91
2021/01/03 00:51:41;;;;;;;10.80;9.80;;;2.30;99.90;;;;;;5007216;28;20659;-92
2021/01/03 00:54:09;;;;;;;11.27;10.27;;;2.30;99.90;;;;;;5028642;28;20666;-92
2021/01/03 00:56:35;;;;;;;12.60;11.40;;;2.40;99.90;;;;;;5025949;28;21011;-92
2021/01/03 00:59:03;;;;;;;11.43;10.33;;;2.40;99.90;;;;;;5028084;28;21451;-92
2021/01/03 01:01:29;;;;;;;11.67;10.50;;;2.30;99.90;;;;;;5027036;28;20671;-91
2021/01/03 01:03:55;;;;;;;11.40;10.40;;;2.30;99.90;;;;;;5027500;28;20655;-91
2021/01/03 01:06:23;;;;;;;13.10;10.57;;;2.30;99.90;;;;;;5027081;28;20649;-93
2021/01/03 01:08:51;;;;;;;11.60;10.50;;;2.30;99.90;;;;;;5011821;28;20642;-93
2021/01/03 01:11:19;;;;;;;10.67;9.70;;;2.30;99.90;;;;;;5026641;28;20672;-93
2021/01/03 01:13:46;;;;;;;11.33;10.30;;;2.40;99.90;;;;;;5030906;28;20643;-92
2021/01/03 01:16:12;;;;;;;11.10;10.10;;;2.30;99.90;;;;;;5028674;28;20667;-92
2021/01/03 01:18:38;;;;;;;10.47;9.13;;;2.30;99.90;;;;;;5027546;28;20659;-93
2021/01/03 01:21:06;;;;;;;11.70;10.60;;;2.30;99.90;;;;;;5026791;28;20679;-93
2021/01/03 01:23:35;;;;;;;11.37;10.23;;;2.20;99.90;;;;;;5029310;28;21024;-95
2021/01/03 01:26:02;;;;;;;11.13;10.13;;;2.20;99.90;;;;;;5028640;28;20656;-94
2021/01/03 01:28:33;;;;;;;11.30;10.10;;;2.30;99.90;;;;;;5032199;28;20647;-94
2021/01/03 01:31:00;;;;;;;10.47;9.47;;;2.20;99.90;;;;;;5034003;28;20728;-95
2021/01/03 01:33:26;;;;;;;11.17;10.20;;;2.20;99.90;;;;;;5030217;28;20635;-93
2021/01/03 01:35:53;;;;;;;11.10;10.03;;;2.20;99.90;;;;;;5027982;28;20649;-94
2021/01/03 01:38:20;;;;;;;10.30;9.40;;;2.20;99.90;;;;;;5003694;28;20648;-93
2021/01/03 01:40:46;;;;;;;10.63;9.70;;;2.20;99.90;;;;;;5025869;28;20653;-89
2021/01/03 01:43:16;;;;;;;11.37;10.27;;;2.10;99.90;;;;;;5022808;28;20636;-92
2021/01/03 01:45:46;;;;;;;10.07;9.23;;;2.00;99.90;;;;;;5023366;28;20671;-92
2021/01/03 01:48:16;;;;;;;10.70;9.70;;;2.10;99.90;;;;;;5009346;28;20689;-92
2021/01/03 01:50:45;;;;;;;11.30;10.20;;;2.20;99.90;;;;;;5025905;28;20662;-91
2021/01/03 01:53:26;;;;;;;11.97;10.90;;;2.10;99.90;;;;;;5031072;28;21176;-91
2021/01/03 01:56:01;;;;;;;11.20;10.10;;;2.10;99.90;;;;;;5026569;28;20650;-92
2021/01/03 01:58:40;;;;;;;11.50;10.40;;;1.90;99.90;;;;;;5014067;28;20662;-91
2021/01/03 02:01:15;;;;;;;11.60;10.50;;;2.00;99.90;;;;;;5017037;28;20635;-93
2021/01/03 02:03:48;;;;;;;12.00;10.90;;;2.00;99.90;;;;;;5033466;28;20638;-92
2021/01/03 02:06:22;;;;;;;11.37;10.37;;;2.00;99.90;;;;;;5034554;28;20682;-92
2021/01/03 02:08:57;;;;;;;13.03;11.83;;;2.00;99.90;;;;;;5040840;28;20665;-91
2021/01/03 02:11:27;;;;;;;12.60;11.50;;;1.80;99.90;;;;;;5019922;28;20666;-91
2021/01/03 02:13:58;;;;;;;12.13;11.03;;;1.70;99.90;;;;;;5030090;28;20634;-91
2021/01/03 02:16:31;;;;;;;13.30;12.07;;;1.90;99.90;;;;;;5031151;28;20663;-90
2021/01/03 02:18:59;;;;;;;12.47;11.37;;;1.80;99.90;;;;;;5030454;28;21201;-91
2021/01/03 02:21:34;;;;;;;13.80;12.50;;;1.80;99.90;;;;;;5032057;28;21228;-91
2021/01/03 02:24:09;;;;;;;13.37;12.27;;;1.80;99.90;;;;;;5027325;28;21247;-91
2021/01/03 02:26:39;;;;;;;15.43;13.97;;;1.60;99.90;;;;;;5015029;28;20633;-93
2021/01/03 02:29:10;;;;;;;14.80;13.40;;;1.60;99.90;;;;;;5011663;28;21022;-92
2021/01/03 02:31:41;;;;;;;16.00;14.43;;;1.50;99.90;;;;;;5024434;28;20651;-92
2021/01/03 02:34:11;;;;;;;15.00;13.60;;;1.60;99.90;;;;;;5027987;28;20701;-92
2021/01/03 02:36:40;;;;;;;14.87;13.50;;;1.60;99.90;;;;;;5027533;28;20651;-92
2021/01/03 02:39:20;;;;;;;14.73;13.50;;;1.60;99.90;;;;;;5028043;28;20694;-93
2021/01/03 02:41:50;;;;;;;15.00;13.57;;;1.50;99.90;;;;;;5026606;28;20670;-92
2021/01/03 02:44:17;;;;;;;13.93;12.73;;;1.50;99.90;;;;;;5024996;28;20639;-92
2021/01/03 02:46:44;;;;;;;15.60;14.23;;;1.50;99.90;;;;;;5028719;28;20622;-91
2021/01/03 02:49:12;;;;;;;16.70;15.13;;;1.60;99.90;;;;;;5025075;28;20642;-91
2021/01/03 02:51:40;;;;;;;16.50;15.00;;;1.50;99.90;;;;;;5026319;28;20662;-91
2021/01/03 02:54:10;;;;;;;14.63;13.30;;;1.40;99.90;;;;;;5012795;28;21272;-93
2021/01/03 02:56:37;;;;;;;15.80;14.23;;;1.50;99.90;;;;;;5035421;28;20635;-92
2021/01/03 02:59:05;;;;;;;14.53;13.23;;;1.50;99.90;;;;;;5031846;28;20642;-92
2021/01/03 03:01:31;;;;;;;16.03;14.43;;;1.50;99.90;;;;;;5029587;28;20674;-93
2021/01/03 03:03:59;;;;;;;15.07;13.67;;;1.50;99.90;;;;;;5027880;28;20639;-92
2021/01/03 03:06:27;;;;;;;14.73;13.53;;;1.50;99.90;;;;;;5043001;28;20659;-93
2021/01/03 03:08:53;;;;;;;15.23;13.83;;;1.50;99.90;;;;;;5037734;28;20618;-93
2021/01/03 03:11:21;;;;;;;15.03;13.70;;;1.60;99.90;;;;;;5025958;28;20682;-94
2021/01/03 03:13:48;;;;;;;15.80;14.27;;;1.60;99.90;;;;;;5028658;28;20639;-94
2021/01/03 03:16:17;;;;;;;17.43;15.97;;;1.60;99.90;;;;;;5031094;28;20634;-94
2021/01/03 03:18:49;;;;;;;16.27;14.87;;;1.60;99.90;;;;;;5035863;28;20644;-96
2021/01/03 03:21:18;;;;;;;16.20;14.67;;;1.60;99.90;;;;;;5017275;28;20683;-93
2021/01/03 03:23:48;;;;;;;15.40;13.90;;;1.70;99.90;;;;;;5027288;28;20713;-94
2021/01/03 03:26:16;;;;;;;16.03;14.63;;;1.70;99.90;;;;;;5026972;28;20674;-93
2021/01/03 03:28:42;;;;;;;16.23;14.83;;;1.70;99.90;;;;;;5023974;28;20636;-92
2021/01/03 03:31:11;;;;;;;18.53;16.83;;;1.60;99.90;;;;;;5008965;28;20725;-93
2021/01/03 03:33:38;;;;;;;16.57;15.10;;;1.50;99.90;;;;;;5026634;28;20690;-93
2021/01/03 03:36:11;;;;;;;17.23;15.53;;;1.60;99.90;;;;;;5028558;28;20641;-94
2021/01/03 03:38:44;;;;;;;17.37;15.87;;;1.60;99.90;;;;;;5026835;28;20629;-94
2021/01/03 03:41:20;;;;;;;17.37;15.77;;;1.50;99.90;;;;;;5031562;28;20667;-95
2021/01/03 03:43:47;;;;;;;17.77;16.13;;;1.50;99.90;;;;;;5037904;28;20634;-93
2021/01/03 03:46:13;;;;;;;18.10;16.50;;;1.50;99.90;;;;;;5034933;28;20690;-93
2021/01/03 03:48:41;;;;;;;19.60;17.87;;;1.50;99.90;;;;;;5029897;28;20665;-93
2021/01/03 03:51:07;;;;;;;19.80;17.93;;;1.60;99.90;;;;;;5028540;28;20663;-93
2021/01/03 03:53:37;;;;;;;19.90;17.90;;;1.60;99.90;;;;;;5010962;28;20643;-93
2021/01/03 03:56:05;;;;;;;18.27;16.73;;;1.50;99.90;;;;;;5008101;28;21402;-93
2021/01/03 03:58:34;;;;;;;18.60;16.90;;;1.60;99.90;;;;;;5026995;28;20677;-93
2021/01/03 04:01:03;;;;;;;18.77;17.10;;;1.50;99.90;;;;;;5022690;28;20726;-93
2021/01/03 04:03:31;;;;;;;18.93;17.23;;;1.50;99.90;;;;;;5025772;28;20628;-93
2021/01/03 04:06:00;;;;;;;20.23;18.33;;;1.60;99.90;;;;;;5029376;28;20675;-92
2021/01/03 04:08:27;;;;;;;20.53;18.57;;;1.60;99.90;;;;;;5028635;28;20722;-92
2021/01/03 04:10:54;;;;;;;21.33;19.43;;;1.50;99.90;;;;;;5024153;28;20687;-92
2021/01/03 04:13:21;;;;;;;19.60;17.90;;;1.50;99.90;;;;;;5024557;28;20647;-91
2021/01/03 04:15:47;;;;;;;20.73;18.87;;;1.40;99.90;;;;;;5023452;28;20690;-92
2021/01/03 04:18:14;;;;;;;19.63;17.73;;;1.40;99.90;;;;;;5023850;28;20635;-91
2021/01/03 04:20:40;;;;;;;19.97;18.03;;;1.50;99.90;;;;;;5026486;28;21249;-92
2021/01/03 04:23:09;;;;;;;19.30;17.60;;;1.50;99.90;;;;;;5030086;28;20639;-93
2021/01/03 04:25:37;;;;;;;21.77;19.77;;;1.60;99.90;;;;;;5028402;28;21221;-93
2021/01/03 04:28:05;;;;;;;20.23;18.50;;;1.50;99.90;;;;;;5026506;28;20658;-90
2021/01/03 04:30:31;;;;;;;21.53;19.57;;;1.50;99.90;;;;;;5028583;28;20670;-89
2021/01/03 04:33:02;;;;;;;22.20;20.03;;;1.50;99.90;;;;;;4990494;28;20679;-92
2021/01/03 04:35:29;;;;;;;19.23;17.53;;;1.50;99.90;;;;;;5032806;28;20635;-91
2021/01/03 04:37:56;;;;;;;20.10;18.30;;;1.60;99.90;;;;;;5028754;28;20635;-91
2021/01/03 04:40:26;;;;;;;20.00;18.20;;;1.60;99.90;;;;;;5028300;28;21047;-92
2021/01/03 04:42:55;;;;;;;19.00;17.40;;;1.70;99.90;;;;;;5024845;28;23722;-91
2021/01/03 04:45:27;;;;;;;20.10;18.30;;;1.60;99.90;;;;;;5029058;28;20671;-91
2021/01/03 04:47:57;;;;;;;21.60;19.70;;;1.50;99.90;;;;;;5010062;28;20662;-92
2021/01/03 04:50:54;;;;;;;22.40;20.30;;;1.50;99.90;;;;;;5020886;28;20745;-91
2021/01/03 04:53:39;;;;;;;21.07;19.10;;;1.50;99.90;;;;;;4997380;28;21001;-91
2021/01/03 04:56:17;;;;;;;20.50;18.70;;;1.50;99.90;;;;;;5021804;28;20646;-91
2021/01/03 04:59:07;;;;;;;23.03;20.83;;;1.50;99.90;;;;;;5021846;28;20642;-91
2021/01/03 05:02:05;;;;;;;21.47;19.50;;;1.50;99.90;;;;;;5023402;28;20674;-91
2021/01/03 05:05:17;;;;;;;20.67;18.97;;;1.40;99.90;;;;;;4991482;28;20623;-92
2021/01/03 05:07:49;;;;;;;22.50;20.40;;;1.50;99.90;;;;;;4990084;28;20728;-92
2021/01/03 05:10:19;;;;;;;22.20;20.20;;;1.40;99.90;;;;;;5022434;28;20664;-91
2021/01/03 05:13:01;;;;;;;22.47;20.50;;;1.40;99.90;;;;;;5026429;28;20639;-91
2021/01/03 05:15:30;;;;;;;21.37;19.47;;;1.50;99.90;;;;;;5028215;28;20647;-91
2021/01/03 05:17:57;;;;;;;22.90;20.83;;;1.50;99.90;;;;;;5025139;28;20726;-91
2021/01/03 05:20:23;;;;;;;21.63;19.73;;;1.50;99.90;;;;;;5025926;28;20732;-90
2021/01/03 05:22:50;;;;;;;22.70;20.60;;;1.50;99.90;;;;;;5023678;28;20639;-91
2021/01/03 05:25:21;;;;;;;21.80;19.83;;;1.50;99.90;;;;;;5024182;28;21023;-91
2021/01/03 05:28:03;;;;;;;23.47;21.27;;;1.60;99.90;;;;;;5023040;28;20647;-91
2021/01/03 05:30:30;;;;;;;24.30;22.00;;;1.50;99.90;;;;;;5020852;28;20655;-91
2021/01/03 05:33:06;;;;;;;22.83;20.83;;;1.40;99.90;;;;;;5021796;28;20643;-91
2021/01/03 05:35:37;;;;;;;23.73;21.63;;;1.50;99.90;;;;;;5019305;28;20664;-91
2021/01/03 05:38:04;;;;;;;23.13;21.00;;;1.50;99.90;;;;;;5004644;28;20637;-91
2021/01/03 05:40:34;;;;;;;24.37;22.07;;;1.50;99.90;;;;;;5013285;28;21061;-90
2021/01/03 05:43:15;;;;;;;25.40;22.93;;;1.40;99.90;;;;;;5012444;28;20639;-91
2021/01/03 05:45:51;;;;;;;25.43;23.13;;;1.40;99.90;;;;;;5030756;28;21264;-90
2021/01/03 05:48:23;;;;;;;23.33;21.00;;;1.40;99.90;;;;;;5026675;28;20660;-91
2021/01/03 05:50:49;;;;;;;22.97;20.97;;;1.40;99.90;;;;;;5029009;28;20666;-90
2021/01/03 05:53:20;;;;;;;24.60;22.30;;;1.40;99.90;;;;;;5028242;28;20634;-91
2021/01/03 05:55:52;;;;;;;22.90;20.70;;;1.40;99.90;;;;;;5027738;28;20675;-91
2021/01/03 05:58:26;;;;;;;23.37;21.20;;;1.40;99.90;;;;;;5027217;28;20647;-92
2021/01/03 06:00:53;;;;;;;22.40;20.40;;;1.40;99.90;;;;;;5032979;28;20689;-89
2021/01/03 06:03:27;;;;;;;24.47;22.20;;;1.40;99.90;;;;;;5028364;28;20638;-91
2021/01/03 06:05:56;;;;;;;24.83;22.40;;;1.50;99.90;;;;;;5029926;28;20674;-90
2021/01/03 06:08:25;;;;;;;24.00;21.80;;;1.50;99.90;;;;;;5028341;28;20638;-90
2021/01/03 06:10:55;;;;;;;22.00;19.90;;;1.40;99.90;;;;;;5026254;28;20704;-90
2021/01/03 06:13:25;;;;;;;25.83;23.43;;;1.40;99.90;;;;;;5027922;28;20642;-91
2021/01/03 06:15:57;;;;;;;24.30;22.03;;;1.50;99.90;;;;;;5022972;28;20636;-89
2021/01/03 06:18:33;;;;;;;21.37;19.40;;;1.40;99.90;;;;;;5022303;28;20667;-89
2021/01/03 06:21:00;;;;;;;21.80;19.80;;;1.50;99.90;;;;;;5024881;28;20656;-89
2021/01/03 06:23:35;;;;;;;21.40;19.40;;;1.50;99.90;;;;;;5025436;28;21176;-90
2021/01/03 06:26:12;;;;;;;21.97;19.97;;;1.60;99.90;;;;;;5021613;28;20743;-89
2021/01/03 06:28:47;;;;;;;20.33;18.23;;;1.60;99.90;;;;;;5027003;28;21162;-90
2021/01/03 06:32:08;;;;;;;21.70;19.80;;;1.60;99.90;;;;;;5026856;28;20654;-89
2021/01/03 06:34:41;;;;;;;22.00;20.00;;;1.50;99.90;;;;;;5026533;28;20639;-89
2021/01/03 06:37:10;;;;;;;21.13;19.30;;;1.40;99.90;;;;;;5033673;28;20612;-90
2021/01/03 06:39:46;;;;;;;20.43;18.53;;;1.40;99.90;;;;;;5027196;28;20672;-90
2021/01/03 06:42:44;;;;;;;19.53;17.90;;;1.50;99.90;;;;;;5002388;28;20648;-90
2021/01/03 06:45:49;;;;;;;21.57;19.67;;;1.60;99.90;;;;;;5025234;28;20774;-91
2021/01/03 06:48:47;;;;;;;21.67;19.77;;;1.50;99.90;;;;;;5024038;28;20636;-90
2021/01/03 06:51:35;;;;;;;21.60;19.70;;;1.50;99.90;;;;;;5017292;28;21311;-90
2021/01/03 06:54:31;;;;;;;21.07;19.07;;;1.50;99.90;;;;;;5005229;28;21103;-90
2021/01/03 06:57:20;;;;;;;19.40;17.70;;;1.60;99.90;;;;;;4993225;28;21218;-90
2021/01/03 07:00:20;;;;;;;22.23;20.37;;;1.60;99.90;;;;;;5023595;28;20708;-90
2021/01/03 07:02:50;;;;;;;22.70;20.60;;;1.60;99.90;;;;;;5021558;28;20647;-90
2021/01/03 07:05:18;;;;;;;21.30;19.43;;;1.50;99.90;;;;;;5029790;28;21074;-90
2021/01/03 07:07:58;;;;;;;20.73;18.93;;;1.60;99.90;;;;;;5029095;28;20658;-90
2021/01/03 07:10:38;;;;;;;22.17;20.27;;;1.60;99.90;;;;;;5029992;28;21410;-89
2021/01/03 07:13:35;;;;;;;22.00;20.10;;;1.50;99.90;;;;;;5024249;28;20619;-89
2021/01/03 07:16:04;;;;;;;21.00;19.20;;;1.80;99.90;;;;;;5010950;28;20636;-90
2021/01/03 07:18:43;;;;;;;20.47;18.67;;;1.70;99.90;;;;;;5025386;28;20646;-88
2021/01/03 07:21:37;;;;;;;21.50;19.60;;;1.60;99.90;;;;;;5026540;28;20662;-88
2021/01/03 07:24:34;;;;;;;21.27;19.27;;;1.50;99.90;;;;;;5015787;28;20678;-88
2021/01/03 07:27:28;;;;;;;21.23;19.33;;;1.50;99.90;;;;;;5021980;28;20727;-89
2021/01/03 07:30:27;;;;;;;20.87;18.93;;;1.60;99.90;;;;;;5019367;28;20663;-89
2021/01/03 07:33:09;;;;;;;21.77;19.87;;;1.50;99.90;;;;;;5018104;28;20624;-89
2021/01/03 07:35:42;;;;;;;22.90;20.87;;;1.50;99.90;;;;;;5016466;28;20640;-89
2021/01/03 07:38:21;;;;;;;23.13;21.03;;;1.50;99.90;;;;;;5024466;28;20704;-88
2021/01/03 07:40:50;;;;;;;22.90;20.80;;;1.50;99.90;;;;;;5027573;28;20667;-89
2021/01/03 07:43:16;;;;;;;23.43;21.30;;;1.60;99.90;;;;;;5028507;28;20654;-89
2021/01/03 07:45:47;;;;;;;23.47;21.43;;;1.50;99.90;;;;;;5028753;28;21237;-89
2021/01/03 07:48:36;;;;;;;21.13;19.27;;;1.60;99.90;;;;;;5027326;28;20639;-89
2021/01/03 07:51:04;;;;;;;22.40;20.40;;;1.60;99.90;;;;;;5025545;28;21120;-89
2021/01/03 07:53:34;;;;;;;20.83;19.10;;;1.60;99.90;;;;;;5021420;28;20634;-89
2021/01/03 07:56:22;;;;;;;22.40;20.40;;;1.70;99.90;;;;;;5022234;28;21210;-89
2021/01/03 07:58:56;;;;;;;21.47;19.50;;;1.60;99.90;;;;;;5024411;28;20635;-90
2021/01/03 08:01:28;;;;;;;20.33;18.53;;;1.80;99.90;;;;;;5022126;28;20758;-89
2021/01/03 08:03:55;;;;;;;20.50;18.60;;;1.60;99.90;;;;;;5035921;28;20616;-88
2021/01/03 08:06:22;;;;;;;20.77;18.97;;;1.60;99.90;;;;;;5027042;28;20703;-89
2021/01/03 08:08:54;;;;;;;21.40;19.40;;;1.70;99.90;;;;;;5026388;28;20636;-89
2021/01/03 08:11:26;;;;;;;22.30;20.30;;;1.70;99.90;;;;;;5022311;28;20717;-89
2021/01/03 08:13:58;;;;;;;19.70;17.93;;;1.80;99.90;;;;;;5025471;28;20654;-88
2021/01/03 08:16:27;;;;;;;18.90;17.30;;;1.80;99.90;;;;;;5006326;28;20614;-88
2021/01/03 08:19:03;;;;;;;20.03;18.27;;;1.80;99.90;;;;;;5027605;28;21234;-89
2021/01/03 08:21:34;;;;;;;19.03;17.33;;;1.80;99.90;;;;;;5026424;28;20662;-89
2021/01/03 08:24:12;;;;;;;20.67;18.87;;;1.70;99.90;;;;;;5032044;28;21061;-89
2021/01/03 08:26:42;;;;;;;19.70;17.90;;;1.80;99.90;;;;;;5027313;28;21041;-89
2021/01/03 08:29:18;;;;;;;21.40;19.60;;;1.70;99.90;;;;;;5029713;28;21401;-89
2021/01/03 08:31:49;;;;;;;20.10;18.30;;;1.70;99.90;;;;;;5025786;28;20653;-89
2021/01/03 08:34:19;;;;;;;22.03;20.13;;;1.70;99.90;;;;;;5030420;28;20817;-89
2021/01/03 08:36:45;;;;;;;19.77;17.97;;;1.70;99.90;;;;;;5031605;28;20636;-89
2021/01/03 08:39:15;;;;;;;21.13;19.23;;;1.80;99.90;;;;;;5028861;28;20636;-88
2021/01/03 08:41:56;;;;;;;21.77;19.77;;;1.80;99.90;;;;;;5026153;28;21039;-89
2021/01/03 08:44:25;;;;;;;21.80;19.90;;;1.80;99.90;;;;;;5009480;28;20639;-89
2021/01/03 08:47:10;;;;;;;22.60;20.50;;;1.90;99.90;;;;;;5024127;28;20683;-89
2021/01/03 08:49:38;;;;;;;21.37;19.20;;;1.90;99.90;;;;;;5021171;28;20738;-89
2021/01/03 08:52:07;;;;;;;22.90;20.80;;;2.00;99.90;;;;;;5023129;28;20674;-88
2021/01/03 08:54:38;;;;;;;21.53;19.53;;;2.20;99.90;;;;;;5028699;28;20638;-90
2021/01/03 08:57:06;;;;;;;21.93;20.00;;;2.10;99.90;;;;;;5034214;28;21187;-89
2021/01/03 08:59:34;;;;;;;22.03;19.97;;;2.00;99.90;;;;;;5028197;28;20806;-88
2021/01/03 09:02:01;;;;;;;21.70;19.60;;;1.90;99.90;;;;;;5028497;28;20632;-89
2021/01/03 09:04:27;;;;;;;21.17;19.17;;;2.10;99.90;;;;;;5026747;28;22259;-90
2021/01/03 09:06:59;;;;;;;21.83;19.90;;;2.00;99.90;;;;;;5025331;28;20666;-89
2021/01/03 09:09:30;;;;;;;22.37;20.27;;;2.00;99.90;;;;;;5025231;28;20667;-89
2021/01/03 09:12:01;;;;;;;20.10;18.23;;;2.20;99.90;;;;;;5006466;28;20804;-89
2021/01/03 09:14:33;;;;;;;23.27;21.10;;;2.10;99.90;;;;;;5023651;28;21218;-89
2021/01/03 09:17:05;;;;;;;21.87;19.87;;;2.20;99.90;;;;;;5028726;28;20655;-90
2021/01/03 09:19:46;;;;;;;19.80;18.00;;;2.10;99.90;;;;;;5031994;28;20794;-88
2021/01/03 09:22:24;;;;;;;22.80;20.57;;;2.10;99.90;;;;;;5030544;28;20754;-89
2021/01/03 09:25:00;;;;;;;22.57;20.47;;;2.10;99.90;;;;;;5032566;28;20689;-90
2021/01/03 09:27:31;;;;;;;21.03;19.23;;;2.10;99.90;;;;;;5011510;28;20628;-89
2021/01/03 09:30:20;;;;;;;22.63;20.33;;;2.10;99.90;;;;;;5028453;28;21142;-88
2021/01/03 09:32:53;;;;;;;22.30;20.20;;;2.00;99.90;;;;;;5034380;28;20742;-89
2021/01/03 09:35:34;;;;;;;21.50;19.60;;;2.20;99.90;;;;;;5035592;28;20677;-88
2021/01/03 09:38:24;;;;;;;20.63;18.73;;;2.50;99.90;;;;;;5030310;28;20641;-91
2021/01/03 09:41:04;;;;;;;34.43;31.13;;;2.50;99.90;;;;;;5030324;28;20668;-88
2021/01/03 09:43:44;;;;;;;21.43;19.53;;;2.50;99.90;;;;;;5031211;28;20621;-88
2021/01/03 09:46:20;;;;;;;26.20;23.90;;;2.50;99.90;;;;;;5028683;28;20691;-88
2021/01/03 09:48:47;;;;;;;20.00;18.30;;;2.60;99.90;;;;;;5013224;28;20643;-88
2021/01/03 09:51:32;;;;;;;27.77;25.17;;;2.40;99.90;;;;;;5027085;28;20661;-89
2021/01/03 09:54:13;;;;;;;20.20;18.40;;;2.40;99.90;;;;;;5027171;28;20713;-89
2021/01/03 09:56:41;;;;;;;20.00;18.10;;;2.30;99.90;;;;;;5025302;28;20628;-88
2021/01/03 09:59:14;;;;;;;19.67;17.83;;;2.50;99.90;;;;;;5024410;28;20652;-88
2021/01/03 10:01:41;;;;;;;19.40;17.40;;;2.50;99.90;;;;;;5026139;28;20637;-89
2021/01/03 10:04:19;;;;;;;20.10;18.10;;;2.60;99.90;;;;;;5027697;28;21132;-89
2021/01/03 10:06:55;;;;;;;21.00;18.40;;;2.50;99.90;;;;;;5033712;28;20782;-88
2021/01/03 10:09:33;;;;;;;20.00;18.07;;;2.30;99.90;;;;;;5012763;28;20633;-89
2021/01/03 10:12:16;;;;;;;21.87;19.80;;;2.40;99.90;;;;;;5012228;28;20694;-89
2021/01/03 10:14:44;;;;;;;20.73;18.77;;;2.50;99.90;;;;;;5030181;28;20992;-89
2021/01/03 10:17:16;;;;;;;21.13;19.13;;;2.40;99.90;;;;;;5026798;28;20640;-89
2021/01/03 10:19:43;;;;;;;20.10;18.23;;;2.30;99.90;;;;;;5022715;28;20656;-89
2021/01/03 10:22:30;;;;;;;18.77;16.97;;;2.40;99.90;;;;;;5026240;28;21264;-89
2021/01/03 10:25:00;;;;;;;19.13;17.33;;;2.30;99.90;;;;;;5026959;28;20652;-89
2021/01/03 10:27:29;;;;;;;20.37;18.47;;;2.30;99.90;;;;;;5023720;28;20703;-89
2021/01/03 10:30:04;;;;;;;20.03;18.13;;;2.30;99.90;;;;;;5037788;28;20683;-89
2021/01/03 10:32:32;;;;;;;21.27;19.27;;;2.40;99.90;;;;;;5038371;28;20631;-89
2021/01/03 10:34:59;;;;;;;20.43;18.53;;;2.60;99.90;;;;;;5038180;28;20698;-89
2021/01/03 10:37:28;;;;;;;19.43;17.63;;;2.40;99.90;;;;;;5043453;28;20671;-88
2021/01/03 10:39:55;;;;;;;19.57;17.77;;;2.50;99.90;;;;;;5030976;28;21276;-89
2021/01/03 10:42:22;;;;;;;19.13;17.43;;;2.40;99.90;;;;;;5029061;28;20635;-89
2021/01/03 10:44:48;;;;;;;21.57;19.47;;;2.40;99.90;;;;;;5024810;28;20862;-89
2021/01/03 10:47:16;;;;;;;24.40;22.13;;;2.30;99.90;;;;;;5029621;28;20680;-91
2021/01/03 10:49:43;;;;;;;21.20;19.20;;;2.30;99.90;;;;;;5027654;28;20694;-89
2021/01/03 10:52:09;;;;;;;21.03;19.10;;;2.30;99.90;;;;;;5022584;28;20649;-90
2021/01/03 10:54:37;;;;;;;21.13;19.13;;;2.40;99.90;;;;;;5029770;28;20665;-88
2021/01/03 10:57:05;;;;;;;21.40;19.47;;;2.50;99.90;;;;;;5030257;28;20657;-88
2021/01/03 10:59:32;;;;;;;20.17;18.37;;;2.50;99.90;;;;;;5026382;28;20667;-88
2021/01/03 11:01:59;;;;;;;21.87;19.90;;;2.50;99.90;;;;;;5035779;28;20755;-88
2021/01/03 11:04:27;;;;;;;21.13;19.20;;;2.40;99.90;;;;;;5047080;28;20684;-87
2021/01/03 11:06:55;;;;;;;19.03;17.33;;;2.40;99.90;;;;;;5047909;28;20680;-89
2021/01/03 11:09:24;;;;;;;19.63;17.87;;;2.50;99.90;;;;;;5042062;28;20684;-90
2021/01/03 11:11:57;;;;;;;19.53;17.77;;;2.40;99.90;;;;;;5029771;28;20654;-91
2021/01/03 11:14:24;;;;;;;17.97;16.47;;;2.40;99.90;;;;;;5023978;28;21141;-91
2021/01/03 11:16:50;;;;;;;17.53;16.00;;;2.40;99.90;;;;;;5027235;28;20686;-89
2021/01/03 11:19:17;;;;;;;18.90;17.20;;;2.50;99.90;;;;;;5027276;28;20727;-89
2021/01/03 11:21:44;;;;;;;18.60;17.00;;;2.60;99.90;;;;;;5029154;28;20630;-89
2021/01/03 11:24:14;;;;;;;19.70;17.97;;;2.50;99.90;;;;;;5029063;28;20920;-89
2021/01/03 11:26:43;;;;;;;20.13;18.33;;;2.50;99.90;;;;;;5030016;28;21253;-89
2021/01/03 11:29:14;;;;;;;19.23;17.53;;;2.50;99.90;;;;;;5041685;28;20663;-88
2021/01/03 11:31:42;;;;;;;17.43;15.80;;;2.50;99.90;;;;;;5041205;28;20648;-89
2021/01/03 11:34:12;;;;;;;19.33;17.60;;;2.60;99.90;;;;;;5039136;28;20636;-88
2021/01/03 11:36:46;;;;;;;19.07;17.33;;;2.50;99.90;;;;;;5034455;28;20663;-91
2021/01/03 11:39:13;;;;;;;20.23;18.40;;;2.60;99.90;;;;;;5044117;28;20652;-91
2021/01/03 11:41:39;;;;;;;18.50;16.80;;;2.70;99.90;;;;;;5048964;28;20639;-91
2021/01/03 11:44:06;;;;;;;17.93;16.33;;;2.60;99.90;;;;;;5022019;28;20633;-91
2021/01/03 11:46:33;;;;;;;19.20;17.40;;;2.60;99.90;;;;;;5046069;28;20665;-92
2021/01/03 11:49:00;;;;;;;17.40;15.90;;;2.70;99.90;;;;;;5050135;28;20647;-90
2021/01/03 11:51:27;;;;;;;19.13;17.33;;;2.80;99.90;;;;;;5033424;28;20672;-91
2021/01/03 11:54:00;;;;;;;17.53;15.73;;;2.80;99.90;;;;;;5028150;28;20651;-91
2021/01/03 11:56:27;;;;;;;19.03;17.30;;;2.80;99.90;;;;;;5030391;28;20646;-90
2021/01/03 11:58:53;;;;;;;18.07;16.53;;;2.60;99.90;;;;;;5026132;28;21010;-93
2021/01/03 12:01:22;;;;;;;19.63;17.93;;;2.60;99.90;;;;;;5027147;28;20684;-89
2021/01/03 12:03:49;;;;;;;19.17;17.30;;;2.70;99.90;;;;;;5024068;28;20643;-88
2021/01/03 12:06:16;;;;;;;20.10;18.17;;;2.90;99.90;;;;;;5019145;28;20670;-91
2021/01/03 12:08:43;;;;;;;19.60;17.87;;;2.80;99.90;;;;;;5028774;28;20643;-89
2021/01/03 12:11:15;;;;;;;19.90;18.10;;;2.80;99.90;;;;;;5029262;28;21213;-90
2021/01/03 12:13:45;;;;;;;19.57;17.87;;;2.80;99.90;;;;;;5026931;28;20791;-91
2021/01/03 12:16:16;;;;;;;17.80;16.20;;;3.00;99.90;;;;;;5020677;28;20645;-90
2021/01/03 12:18:43;;;;;;;19.23;17.33;;;2.90;99.90;;;;;;5025426;28;20622;-90
2021/01/03 12:21:10;;;;;;;19.70;17.80;;;2.70;99.90;;;;;;5026559;28;20674;-90
2021/01/03 12:23:38;;;;;;;19.23;17.37;;;2.70;99.90;;;;;;5031943;28;20624;-89
2021/01/03 12:26:05;;;;;;;19.67;17.87;;;2.80;99.90;;;;;;5026912;28;20676;-91
2021/01/03 12:28:32;;;;;;;21.97;19.97;;;2.80;99.90;;;;;;5029620;28;20678;-90
2021/01/03 12:31:00;;;;;;;19.10;17.20;;;2.90;99.90;;;;;;5028808;28;20735;-91
2021/01/03 12:33:27;;;;;;;20.23;18.40;;;2.90;99.90;;;;;;5026770;28;20983;-91
2021/01/03 12:35:56;;;;;;;19.30;17.47;;;2.90;99.90;;;;;;5029457;28;20658;-91
2021/01/03 12:38:22;;;;;;;18.00;16.40;;;2.90;99.90;;;;;;5029562;28;20644;-91
2021/01/03 12:40:49;;;;;;;19.93;18.00;;;2.80;99.90;;;;;;5030361;28;20666;-91
2021/01/03 12:43:17;;;;;;;18.73;16.93;;;2.80;99.90;;;;;;5026656;28;20705;-90
2021/01/03 12:45:50;;;;;;;18.90;17.20;;;2.70;99.90;;;;;;5027142;28;20677;-90
2021/01/03 12:48:18;;;;;;;17.40;15.80;;;2.70;99.90;;;;;;5028722;28;20652;-89
2021/01/03 12:50:44;;;;;;;19.23;17.33;;;2.80;99.90;;;;;;5025781;28;21303;-90
2021/01/03 12:53:10;;;;;;;19.00;17.20;;;2.90;99.90;;;;;;5025272;28;21267;-91
2021/01/03 12:55:37;;;;;;;19.03;17.13;;;3.00;99.90;;;;;;5030844;28;20632;-90
2021/01/03 12:58:03;;;;;;;18.60;16.97;;;3.20;99.90;;;;;;5023363;28;21859;-89
2021/01/03 13:00:30;;;;;;;20.53;18.60;;;3.00;99.90;;;;;;5025462;28;21154;-89
2021/01/03 13:02:58;;;;;;;19.40;17.60;;;3.00;99.90;;;;;;5006397;28;20653;-89